Strona główna
METAR-TAF:

METAR-TAF

Lotnisko :

Port lotniczy Santa Rosa

Santa Rosa de Toay, Argentyna

Szerokość geograficzna: 36-34S, Długość geograficzna: 064-16W, wysokość: 190 m

METAR: brakujący

czas: 11:14 (14:14 UTC)

Prognoza

Raport powstał 21 godziny i 14 minut temu, godzina 17:00 UTC
Prognoza ważna od 17 godzina 18 UTC do 18 godzina 18 UTC
Wiatr 10 kt od południe w porywach dochodzący do 25 kt
Widzialność 10 km lub więcej
Mało chmury na wysokości 4000 ft
Stopniowe zmiany
od 17 godzina 21 UTC do 17 godzina 23 UTC
Wiatr 10 kt od zachodnio-południowy zachód
Widzialność 10 km lub więcej
Brak chmur poniżej 1500 m i brak chmur cumulonimbus

TAF: SAZR 171700Z 1718/1818 18010G25KT 9999 FEW040 TX24/1818Z TN10/1811Z BECMG 1721/1723 25010KT CAVOK

Obserwacja i prognoza pogody dla ponad 4000 lotnisk (raport METAR i TAF).

Dostępne stacje oznaczono żółtymi i czerwonymi punktami na mapie.

Najedź kursorem aby zobaczyć nazwę stacji.

Kliknij aby zobaczyć obserwacje i prognozy pogody.

Aby zmienić mapę: kliknij na zielony przycisk z czarnym krzyżykiem, aby powiększyć; na zielony przycisk z myślnikiem, aby pomniejszyć; na zielone strzałki, aby przejść do map sąsiednich.


METAR-TAF: